Time;durP1;ratioP1;P1;durP2;ratioP2;P2;SDS_P1;SDS_P2;PMS_P1;PMS_P2;Temp;Humidity;BMP_temperature;BMP_pressure;BME280_temperature;BME280_humidity;BME280_pressure;Samples;Min_cycle;Max_cycle;Signal;HPM_P1;HPM_P2
2022/12/25 00:00:47;;;;;;;3.15;2.33;;;;;;;;;;5036564;28;20032;-23
2022/12/25 00:03:13;;;;;;;1.95;1.77;;;;;;;;;;5036022;28;20037;-22
2022/12/25 00:05:40;;;;;;;2.25;1.98;;;;;;;;;;5036498;28;20028;-25
2022/12/25 00:08:06;;;;;;;1.92;1.75;;;;;;;;;;5036196;28;20037;-26
2022/12/25 00:10:32;;;;;;;2.53;1.98;;;;;;;;;;5036329;28;20061;-23
2022/12/25 00:12:59;;;;;;;2.50;1.73;;;;;;;;;;5036022;28;20036;-23
2022/12/25 00:15:25;;;;;;;1.63;1.52;;;;;;;;;;5035963;28;20056;-22
2022/12/25 00:17:51;;;;;;;2.05;1.80;;;;;;;;;;5036757;28;20328;-24
2022/12/25 00:20:17;;;;;;;2.40;1.77;;;;;;;;;;5036271;28;20338;-22
2022/12/25 00:22:43;;;;;;;3.33;1.88;;;;;;;;;;5035820;28;20025;-24
2022/12/25 00:25:10;;;;;;;2.70;1.60;;;;;;;;;;5036389;28;20033;-24
2022/12/25 00:27:40;;;;;;;3.10;1.83;;;;;;;;;;5035784;28;20029;-23
2022/12/25 00:30:06;;;;;;;2.95;2.08;;;;;;;;;;5036481;28;20100;-23
2022/12/25 00:32:36;;;;;;;1.92;1.65;;;;;;;;;;5035596;28;20035;-22
2022/12/25 00:35:03;;;;;;;2.60;2.10;;;;;;;;;;5035628;28;20029;-23
2022/12/25 00:37:29;;;;;;;2.13;1.83;;;;;;;;;;5035566;28;20427;-22
2022/12/25 00:39:55;;;;;;;2.83;2.03;;;;;;;;;;5035538;28;20100;-22
2022/12/25 00:42:22;;;;;;;2.95;1.75;;;;;;;;;;5035702;28;20021;-23
2022/12/25 00:44:49;;;;;;;1.75;1.60;;;;;;;;;;5035740;28;20044;-22
2022/12/25 00:47:16;;;;;;;3.97;2.97;;;;;;;;;;5035711;28;20033;-22
2022/12/25 00:49:42;;;;;;;2.03;1.77;;;;;;;;;;5035276;28;20052;-25
2022/12/25 00:52:09;;;;;;;3.20;1.70;;;;;;;;;;5035536;28;20044;-23
2022/12/25 00:54:35;;;;;;;2.63;2.00;;;;;;;;;;5050946;28;20021;-24
2022/12/25 00:57:02;;;;;;;2.78;1.77;;;;;;;;;;5035490;28;20095;-23
2022/12/25 00:59:31;;;;;;;2.35;1.90;;;;;;;;;;5034870;28;20437;-24
2022/12/25 01:02:21;;;;;;;2.30;2.00;;;;;;;;;;5035126;28;20033;-22
2022/12/25 01:04:43;;;;;;;2.05;1.77;;;;;;;;;;5034908;28;20128;-22
2022/12/25 01:07:10;;;;;;;3.00;2.00;;;;;;;;;;5035350;28;20029;-25
2022/12/25 01:12:21;;;;;;;1.95;1.63;;;;;;;;;;5035258;28;20045;-24
2022/12/25 01:14:47;;;;;;;2.10;1.65;;;;;;;;;;5034365;28;20026;-25
2022/12/25 01:17:13;;;;;;;1.77;1.63;;;;;;;;;;5034996;28;20148;-24
2022/12/25 01:19:40;;;;;;;2.08;1.70;;;;;;;;;;5035209;28;20021;-23
2022/12/25 01:22:06;;;;;;;1.60;1.50;;;;;;;;;;5034853;28;20025;-23
2022/12/25 01:24:32;;;;;;;1.88;1.67;;;;;;;;;;5035112;28;20029;-27
2022/12/25 01:26:58;;;;;;;2.10;1.67;;;;;;;;;;5034807;28;20030;-26
2022/12/25 01:29:24;;;;;;;3.15;1.88;;;;;;;;;;5034762;28;20488;-22
2022/12/25 01:31:50;;;;;;;1.98;1.60;;;;;;;;;;5035148;28;20120;-23
2022/12/25 01:34:17;;;;;;;3.58;2.65;;;;;;;;;;5034730;28;20068;-22
2022/12/25 01:36:43;;;;;;;3.75;1.42;;;;;;;;;;5034930;28;20104;-23
2022/12/25 01:39:09;;;;;;;2.22;1.80;;;;;;;;;;5034717;28;20025;-24
2022/12/25 01:41:35;;;;;;;1.98;1.67;;;;;;;;;;5050269;28;20342;-23
2022/12/25 01:44:06;;;;;;;3.25;2.03;;;;;;;;;;5034786;28;20167;-24
2022/12/25 01:46:32;;;;;;;;;;;;;;;;;;5035032;28;20499;-23
2022/12/25 01:49:01;;;;;;;3.40;2.47;;;;;;;;;;5035109;28;19909;-23
2022/12/25 01:51:27;;;;;;;2.10;1.95;;;;;;;;;;5034429;28;20187;-22
2022/12/25 01:53:55;;;;;;;2.30;2.10;;;;;;;;;;5034458;28;20080;-22
2022/12/25 01:56:21;;;;;;;2.03;1.55;;;;;;;;;;5034493;28;20337;-22
2022/12/25 01:58:47;;;;;;;2.30;1.95;;;;;;;;;;5034711;28;20032;-25
2022/12/25 02:01:13;;;;;;;3.13;1.48;;;;;;;;;;5034688;28;20037;-21
2022/12/25 02:03:41;;;;;;;1.65;1.40;;;;;;;;;;5034169;28;20039;-23
2022/12/25 02:06:08;;;;;;;1.88;1.58;;;;;;;;;;5034670;28;20025;-24
2022/12/25 02:08:34;;;;;;;3.55;1.70;;;;;;;;;;5034356;28;20040;-22
2022/12/25 02:11:00;;;;;;;1.83;1.50;;;;;;;;;;5034741;28;20029;-22
2022/12/25 02:13:26;;;;;;;3.75;1.63;;;;;;;;;;5038160;28;20079;-22
2022/12/25 02:16:05;;;;;;;2.13;1.70;;;;;;;;;;5038495;28;20033;-21
2022/12/25 02:18:34;;;;;;;2.45;2.17;;;;;;;;;;5038184;28;20033;-21
2022/12/25 02:21:19;;;;;;;1.95;1.60;;;;;;;;;;5038144;28;20025;-22
2022/12/25 02:23:52;;;;;;;2.13;1.75;;;;;;;;;;5038343;28;20033;-22
2022/12/25 02:26:27;;;;;;;2.13;1.95;;;;;;;;;;5038665;28;20096;-22
2022/12/25 02:29:05;;;;;;;1.80;1.70;;;;;;;;;;5037998;28;20025;-22
2022/12/25 02:31:37;;;;;;;2.13;1.77;;;;;;;;;;5037869;28;20113;-23
2022/12/25 02:34:22;;;;;;;2.85;1.75;;;;;;;;;;5037889;28;20021;-22
2022/12/25 02:36:55;;;;;;;2.50;1.88;;;;;;;;;;5037913;28;20446;-21
2022/12/25 02:42:14;;;;;;;2.58;1.90;;;;;;;;;;5037777;28;20095;-22
2022/12/25 03:06:58;;;;;;;2.53;1.67;;;;;;;;;;5037920;28;20060;-26
2022/12/25 03:12:15;;;;;;;2.03;1.83;;;;;;;;;;5037712;28;20053;-23
2022/12/25 03:17:26;;;;;;;1.92;1.73;;;;;;;;;;5037225;28;20044;-22
2022/12/25 03:28:07;;;;;;;1.95;1.63;;;;;;;;;;5036978;28;20099;-24
2022/12/25 03:33:36;;;;;;;2.20;1.98;;;;;;;;;;5036819;28;20499;-22
2022/12/25 03:36:25;;;;;;;2.25;1.60;;;;;;;;;;5036816;28;20025;-23
2022/12/25 04:36:49;;;;;;;2.92;2.08;;;;;;;;;;5035951;28;20369;-23
2022/12/25 04:39:16;;;;;;;1.85;1.75;;;;;;;;;;5051209;28;20041;-22
2022/12/25 04:41:42;;;;;;;2.13;1.73;;;;;;;;;;5035498;28;20025;-22
2022/12/25 04:44:08;;;;;;;2.08;1.88;;;;;;;;;;5035693;28;20334;-22
2022/12/25 04:46:35;;;;;;;1.80;1.70;;;;;;;;;;5035723;28;20028;-23
2022/12/25 04:49:01;;;;;;;2.05;1.83;;;;;;;;;;5035690;28;20048;-22
2022/12/25 04:51:27;;;;;;;1.55;1.45;;;;;;;;;;5035553;28;20029;-24
2022/12/25 04:53:53;;;;;;;2.50;1.80;;;;;;;;;;5035254;28;20437;-23
2022/12/25 04:56:20;;;;;;;1.88;1.45;;;;;;;;;;5050952;28;20456;-25
2022/12/25 04:58:47;;;;;;;1.90;1.80;;;;;;;;;;5035285;28;20032;-22
2022/12/25 05:01:14;;;;;;;1.88;1.77;;;;;;;;;;5035235;28;20040;-21
2022/12/25 05:03:40;;;;;;;1.95;1.55;;;;;;;;;;5034878;28;20049;-23
2022/12/25 05:06:06;;;;;;;1.48;1.30;;;;;;;;;;5035408;28;20048;-24
2022/12/25 05:08:34;;;;;;;2.42;1.70;;;;;;;;;;5035367;28;20022;-22
2022/12/25 05:11:04;;;;;;;1.83;1.25;;;;;;;;;;5035208;28;20025;-21
2022/12/25 05:13:31;;;;;;;1.42;1.30;;;;;;;;;;5034955;28;20033;-24
2022/12/25 05:15:57;;;;;;;2.00;1.40;;;;;;;;;;5035213;28;20045;-23
2022/12/25 05:18:23;;;;;;;1.80;1.58;;;;;;;;;;5035225;28;20021;-23
2022/12/25 05:20:53;;;;;;;1.90;1.55;;;;;;;;;;5050559;28;20025;-22
2022/12/25 05:23:19;;;;;;;1.92;1.33;;;;;;;;;;5034812;28;20368;-21
2022/12/25 05:25:46;;;;;;;1.85;1.63;;;;;;;;;;5034794;28;20045;-22
2022/12/25 05:28:12;;;;;;;1.40;1.30;;;;;;;;;;5035082;28;20040;-22
2022/12/25 05:30:38;;;;;;;1.70;1.42;;;;;;;;;;5034961;28;20037;-24
2022/12/25 05:33:04;;;;;;;1.60;1.50;;;;;;;;;;5035711;28;20025;-21
2022/12/25 05:35:30;;;;;;;1.73;1.63;;;;;;;;;;5034664;28;20029;-22
2022/12/25 05:37:57;;;;;;;1.80;1.70;;;;;;;;;;5034681;28;20017;-22
2022/12/25 05:40:23;;;;;;;3.25;1.52;;;;;;;;;;5034603;28;20530;-24
2022/12/25 05:42:49;;;;;;;2.00;1.75;;;;;;;;;;5034575;28;20064;-23
2022/12/25 05:45:15;;;;;;;1.98;1.50;;;;;;;;;;5050175;28;20029;-22
2022/12/25 05:47:41;;;;;;;1.10;1.00;;;;;;;;;;5049816;28;20104;-22
2022/12/25 05:50:08;;;;;;;1.60;1.50;;;;;;;;;;5034558;28;20038;-22
2022/12/25 05:52:34;;;;;;;2.10;1.63;;;;;;;;;;5034453;28;20444;-22
2022/12/25 05:55:00;;;;;;;1.67;1.58;;;;;;;;;;5034540;28;20109;-22
2022/12/25 05:57:30;;;;;;;2.72;1.67;;;;;;;;;;5034762;28;20075;-22
2022/12/25 05:59:56;;;;;;;1.70;1.60;;;;;;;;;;5050109;28;20451;-22
2022/12/25 06:02:23;;;;;;;2.05;1.63;;;;;;;;;;5034315;28;20022;-22
2022/12/25 06:04:49;;;;;;;1.25;1.15;;;;;;;;;;5034321;28;20124;-24
2022/12/25 06:07:15;;;;;;;1.50;1.40;;;;;;;;;;5034434;28;20075;-23
2022/12/25 06:09:41;;;;;;;1.58;1.30;;;;;;;;;;5034358;28;20111;-25
2022/12/25 06:12:08;;;;;;;1.65;1.55;;;;;;;;;;5034191;28;20045;-22
2022/12/25 06:14:34;;;;;;;1.83;1.73;;;;;;;;;;5034616;28;20030;-22
2022/12/25 06:17:00;;;;;;;2.47;1.45;;;;;;;;;;5034329;28;20022;-22
2022/12/25 06:19:27;;;;;;;1.70;1.55;;;;;;;;;;5034603;28;20026;-22
2022/12/25 06:21:54;;;;;;;1.70;1.60;;;;;;;;;;5034196;28;20038;-22
2022/12/25 06:24:20;;;;;;;2.00;1.88;;;;;;;;;;5034516;28;20022;-21
2022/12/25 06:26:46;;;;;;;2.10;1.90;;;;;;;;;;5034755;28;20483;-22
2022/12/25 06:29:13;;;;;;;1.63;1.52;;;;;;;;;;5034514;28;20049;-23
2022/12/25 06:31:39;;;;;;;1.40;1.30;;;;;;;;;;5034387;28;20037;-24
2022/12/25 06:34:05;;;;;;;1.55;1.40;;;;;;;;;;5034062;28;20018;-21
2022/12/25 06:36:31;;;;;;;2.60;1.88;;;;;;;;;;5034118;28;20029;-24
2022/12/25 06:39:01;;;;;;;1.75;1.30;;;;;;;;;;5034164;28;20554;-26
2022/12/25 06:41:28;;;;;;;1.65;1.30;;;;;;;;;;5034402;28;20033;-26
2022/12/25 06:43:55;;;;;;;2.05;1.85;;;;;;;;;;5034043;28;20037;-22
2022/12/25 06:46:23;;;;;;;1.88;1.58;;;;;;;;;;5034430;28;20029;-22
2022/12/25 06:48:49;;;;;;;1.67;1.38;;;;;;;;;;5033990;28;20033;-24
2022/12/25 06:51:16;;;;;;;2.63;2.42;;;;;;;;;;5033915;28;20117;-21
2022/12/25 06:53:42;;;;;;;2.05;1.52;;;;;;;;;;5033869;28;20064;-24
2022/12/25 06:56:14;;;;;;;1.42;1.30;;;;;;;;;;5049598;28;20084;-21
2022/12/25 06:58:41;;;;;;;1.35;1.25;;;;;;;;;;5035642;28;20025;-22
2022/12/25 07:01:13;;;;;;;1.73;1.63;;;;;;;;;;5037729;28;20036;-26
2022/12/25 07:03:40;;;;;;;2.40;1.33;;;;;;;;;;5037329;28;20045;-23
2022/12/25 07:06:06;;;;;;;1.50;1.40;;;;;;;;;;5037920;28;20047;-22
2022/12/25 07:08:32;;;;;;;2.05;1.40;;;;;;;;;;5037302;28;20048;-22
2022/12/25 07:10:59;;;;;;;1.60;1.40;;;;;;;;;;5037239;28;20364;-24
2022/12/25 07:13:25;;;;;;;2.08;1.95;;;;;;;;;;5037462;28;20033;-26
2022/12/25 07:15:58;;;;;;;1.60;1.30;;;;;;;;;;5037430;28;20096;-23
2022/12/25 07:18:24;;;;;;;1.85;1.73;;;;;;;;;;5037470;28;20035;-22
2022/12/25 07:20:50;;;;;;;2.58;1.60;;;;;;;;;;5037130;28;20456;-26
2022/12/25 07:23:17;;;;;;;2.38;1.75;;;;;;;;;;5037275;28;20101;-22
2022/12/25 07:25:43;;;;;;;1.75;1.63;;;;;;;;;;5036970;28;20040;-26
2022/12/25 07:28:09;;;;;;;1.90;1.70;;;;;;;;;;5037217;28;20033;-22
2022/12/25 07:30:37;;;;;;;1.70;1.60;;;;;;;;;;5036886;28;20029;-23
2022/12/25 07:33:03;;;;;;;1.73;1.30;;;;;;;;;;5037038;28;20021;-23
2022/12/25 07:35:29;;;;;;;2.05;1.50;;;;;;;;;;5036863;28;20082;-24
2022/12/25 07:37:55;;;;;;;1.70;1.60;;;;;;;;;;5037320;28;20396;-23
2022/12/25 07:40:21;;;;;;;1.40;1.30;;;;;;;;;;5036994;28;20060;-23
2022/12/25 07:42:47;;;;;;;1.85;1.65;;;;;;;;;;5036871;28;20049;-21
2022/12/25 07:45:13;;;;;;;1.48;1.38;;;;;;;;;;5052305;28;20043;-23
2022/12/25 07:47:40;;;;;;;1.95;1.77;;;;;;;;;;5036609;28;20021;-21
2022/12/25 07:50:06;;;;;;;1.58;1.48;;;;;;;;;;5036451;28;20108;-23
2022/12/25 07:52:32;;;;;;;1.70;1.60;;;;;;;;;;5036448;28;20021;-23
2022/12/25 07:54:58;;;;;;;2.38;1.90;;;;;;;;;;5036427;28;20036;-21
2022/12/25 07:57:25;;;;;;;2.05;1.85;;;;;;;;;;5036962;28;20053;-22
2022/12/25 07:59:51;;;;;;;1.70;1.60;;;;;;;;;;5036323;28;20026;-22
2022/12/25 08:02:17;;;;;;;1.95;1.80;;;;;;;;;;5036529;28;20357;-23
2022/12/25 08:04:43;;;;;;;1.60;1.50;;;;;;;;;;5036052;28;20128;-22
2022/12/25 08:07:09;;;;;;;1.63;1.52;;;;;;;;;;5036493;28;20100;-23
2022/12/25 08:09:35;;;;;;;1.45;1.35;;;;;;;;;;5035649;28;20104;-23
2022/12/25 08:12:01;;;;;;;2.78;2.00;;;;;;;;;;5035970;28;20056;-26
2022/12/25 08:14:29;;;;;;;2.65;1.73;;;;;;;;;;5051764;28;20021;-24
2022/12/25 08:16:55;;;;;;;2.13;1.80;;;;;;;;;;5036309;28;20449;-22
2022/12/25 08:19:21;;;;;;;1.45;1.35;;;;;;;;;;5036019;28;20030;-28
2022/12/25 08:21:47;;;;;;;1.50;1.40;;;;;;;;;;5051595;28;20120;-23
2022/12/25 08:24:13;;;;;;;1.70;1.60;;;;;;;;;;5036208;28;20092;-26
2022/12/25 08:26:39;;;;;;;1.40;1.30;;;;;;;;;;5036105;28;20049;-22
2022/12/25 08:29:06;;;;;;;2.83;2.00;;;;;;;;;;5036043;28;20033;-22
2022/12/25 08:31:33;;;;;;;2.28;1.92;;;;;;;;;;5035670;28;20099;-22
2022/12/25 08:34:01;;;;;;;1.50;1.40;;;;;;;;;;5035932;28;20108;-25
2022/12/25 08:36:27;;;;;;;1.77;1.67;;;;;;;;;;5035973;28;20415;-21
2022/12/25 08:38:54;;;;;;;1.70;1.60;;;;;;;;;;5035625;28;20052;-22
2022/12/25 08:41:20;;;;;;;1.35;1.25;;;;;;;;;;5035599;28;20105;-21
2022/12/25 08:43:46;;;;;;;1.80;1.55;;;;;;;;;;5035717;28;20090;-23
2022/12/25 08:46:13;;;;;;;1.92;1.70;;;;;;;;;;5035751;28;20034;-22
2022/12/25 08:48:41;;;;;;;1.65;1.50;;;;;;;;;;5035480;28;20109;-22
2022/12/25 08:51:10;;;;;;;1.55;1.45;;;;;;;;;;5035600;28;20033;-22
2022/12/25 08:53:36;;;;;;;1.67;1.58;;;;;;;;;;5035844;28;20022;-23
2022/12/25 08:56:04;;;;;;;1.98;1.52;;;;;;;;;;5035294;28;20029;-25
2022/12/25 08:58:30;;;;;;;1.60;1.50;;;;;;;;;;5035245;28;20021;-22
2022/12/25 09:00:56;;;;;;;1.38;1.27;;;;;;;;;;5035241;28;20037;-26
2022/12/25 09:03:23;;;;;;;1.60;1.45;;;;;;;;;;5035115;28;20429;-23
2022/12/25 09:05:49;;;;;;;1.55;1.42;;;;;;;;;;5035096;28;20033;-22
2022/12/25 09:08:15;;;;;;;1.58;1.42;;;;;;;;;;5035695;28;20433;-22
2022/12/25 09:10:41;;;;;;;1.77;1.67;;;;;;;;;;5035253;28;20037;-23
2022/12/25 09:13:08;;;;;;;1.50;1.40;;;;;;;;;;5035526;28;20394;-22
2022/12/25 09:15:34;;;;;;;2.15;1.60;;;;;;;;;;5034973;28;20476;-22
2022/12/25 09:18:01;;;;;;;1.38;1.27;;;;;;;;;;5050593;28;20091;-22
2022/12/25 09:20:27;;;;;;;1.88;1.70;;;;;;;;;;5034674;28;20087;-24
2022/12/25 09:22:53;;;;;;;1.17;1.17;;;;;;;;;;5035335;28;20108;-22
2022/12/25 09:25:19;;;;;;;1.83;1.70;;;;;;;;;;5034897;28;20034;-22
2022/12/25 09:27:45;;;;;;;1.95;1.42;;;;;;;;;;5035108;28;20040;-22
2022/12/25 09:30:11;;;;;;;1.40;1.30;;;;;;;;;;5035020;28;20032;-22
2022/12/25 09:32:41;;;;;;;1.58;1.48;;;;;;;;;;5034692;28;20026;-22
2022/12/25 09:35:07;;;;;;;2.05;1.88;;;;;;;;;;5035013;28;20026;-23
2022/12/25 09:37:34;;;;;;;1.75;1.65;;;;;;;;;;5035244;28;20442;-22
2022/12/25 09:40:00;;;;;;;1.90;1.60;;;;;;;;;;5034703;28;20025;-21
2022/12/25 09:42:30;;;;;;;1.75;1.50;;;;;;;;;;5034556;28;20040;-23
2022/12/25 09:45:10;;;;;;;1.52;1.35;;;;;;;;;;5034956;28;20104;-22
2022/12/25 09:47:39;;;;;;;1.67;1.58;;;;;;;;;;5034617;28;20095;-24
2022/12/25 09:50:24;;;;;;;1.50;1.40;;;;;;;;;;5034507;28;20051;-22
2022/12/25 09:52:54;;;;;;;1.38;1.27;;;;;;;;;;5034703;28;20033;-24
2022/12/25 09:55:23;;;;;;;1.60;1.50;;;;;;;;;;5034821;28;20365;-22
2022/12/25 09:57:53;;;;;;;1.77;1.67;;;;;;;;;;5034441;28;20034;-25
2022/12/25 10:00:23;;;;;;;1.23;1.10;;;;;;;;;;5034748;28;20025;-21
2022/12/25 10:03:01;;;;;;;1.60;1.50;;;;;;;;;;5034173;28;20503;-23
2022/12/25 10:05:46;;;;;;;1.27;1.17;;;;;;;;;;5034735;28;20041;-26
2022/12/25 10:08:30;;;;;;;1.67;1.58;;;;;;;;;;5034443;28;20334;-21
2022/12/25 10:11:02;;;;;;;2.13;1.60;;;;;;;;;;5034318;28;20109;-23
2022/12/25 10:13:35;;;;;;;2.00;1.52;;;;;;;;;;5034441;28;20033;-22
2022/12/25 10:16:10;;;;;;;2.45;1.65;;;;;;;;;;5034279;28;20029;-21
2022/12/25 10:18:40;;;;;;;1.70;1.60;;;;;;;;;;5034606;28;20036;-22
2022/12/25 10:21:09;;;;;;;1.83;1.70;;;;;;;;;;5034932;28;20353;-23
2022/12/25 10:23:40;;;;;;;1.67;1.58;;;;;;;;;;5034239;28;20091;-26
2022/12/25 10:26:17;;;;;;;1.63;1.52;;;;;;;;;;5034511;28;20045;-24
2022/12/25 10:28:49;;;;;;;1.70;1.60;;;;;;;;;;5034507;28;20088;-23
2022/12/25 10:31:22;;;;;;;1.80;1.60;;;;;;;;;;5034460;28;20030;-21
2022/12/25 10:33:49;;;;;;;1.52;1.42;;;;;;;;;;5037738;28;20143;-23
2022/12/25 10:36:18;;;;;;;1.88;1.50;;;;;;;;;;5038238;28;20037;-23
2022/12/25 10:38:45;;;;;;;1.50;1.40;;;;;;;;;;5038963;28;20333;-21
2022/12/25 10:41:20;;;;;;;1.77;1.67;;;;;;;;;;5038175;28;20041;-21
2022/12/25 10:43:51;;;;;;;1.58;1.48;;;;;;;;;;5053357;28;20041;-22
2022/12/25 10:46:18;;;;;;;1.73;1.35;;;;;;;;;;5037846;28;20068;-22
2022/12/25 10:48:51;;;;;;;2.67;1.50;;;;;;;;;;5037708;28;20030;-22
2022/12/25 10:51:26;;;;;;;1.88;1.35;;;;;;;;;;5037904;28;20116;-23
2022/12/25 10:53:52;;;;;;;1.30;1.20;;;;;;;;;;5037826;28;20021;-22
2022/12/25 10:56:19;;;;;;;1.52;1.42;;;;;;;;;;5053287;28;20163;-22
2022/12/25 10:58:45;;;;;;;1.50;1.40;;;;;;;;;;5037525;28;20037;-21
2022/12/25 11:01:12;;;;;;;1.60;1.50;;;;;;;;;;5037489;28;20635;-23
2022/12/25 11:03:44;;;;;;;1.67;1.58;;;;;;;;;;5037534;28;20045;-24
2022/12/25 11:06:22;;;;;;;2.30;1.63;;;;;;;;;;5037697;28;20376;-22
2022/12/25 11:08:59;;;;;;;1.40;1.30;;;;;;;;;;5037618;28;20044;-22
2022/12/25 11:11:26;;;;;;;2.08;1.52;;;;;;;;;;5037158;28;20098;-22
2022/12/25 11:13:53;;;;;;;1.58;1.30;;;;;;;;;;5052832;28;20479;-22
2022/12/25 11:16:38;;;;;;;1.63;1.52;;;;;;;;;;5037206;28;20044;-22
2022/12/25 11:19:37;;;;;;;1.80;1.30;;;;;;;;;;5037156;28;20112;-23
2022/12/25 11:22:05;;;;;;;1.35;1.20;;;;;;;;;;5014872;28;20161;-23
2022/12/25 11:24:32;;;;;;;1.40;1.30;;;;;;;;;;5037381;28;20112;-24
2022/12/25 11:27:00;;;;;;;1.70;1.60;;;;;;;;;;5037298;28;20329;-22
2022/12/25 11:29:37;;;;;;;1.75;1.65;;;;;;;;;;5036965;28;20101;-23
2022/12/25 11:32:04;;;;;;;1.55;1.45;;;;;;;;;;5037226;28;20030;-24
2022/12/25 11:34:33;;;;;;;1.77;1.67;;;;;;;;;;5036884;28;20022;-24
2022/12/25 11:37:01;;;;;;;1.50;1.30;;;;;;;;;;5037079;28;20364;-22
2022/12/25 11:39:32;;;;;;;1.40;1.30;;;;;;;;;;5036831;28;20029;-22
2022/12/25 11:42:18;;;;;;;1.40;1.30;;;;;;;;;;5037195;28;20029;-22
2022/12/25 11:45:01;;;;;;;1.50;1.40;;;;;;;;;;5035882;28;20033;-21
2022/12/25 11:47:33;;;;;;;1.60;1.50;;;;;;;;;;5037219;28;20034;-23
2022/12/25 11:50:03;;;;;;;1.70;1.60;;;;;;;;;;5036499;28;20045;-22
2022/12/25 11:52:33;;;;;;;2.05;1.67;;;;;;;;;;5036507;28;20029;-22
2022/12/25 11:55:07;;;;;;;1.70;1.60;;;;;;;;;;5036781;28;20049;-23
2022/12/25 11:57:34;;;;;;;1.77;1.67;;;;;;;;;;5036761;28;20021;-24
2022/12/25 12:00:09;;;;;;;2.03;1.52;;;;;;;;;;5036615;28;20025;-22
2022/12/25 12:02:43;;;;;;;1.70;1.60;;;;;;;;;;5036506;28;20017;-25
2022/12/25 12:05:15;;;;;;;1.60;1.50;;;;;;;;;;4996918;28;20097;-26
2022/12/25 12:07:59;;;;;;;1.15;1.15;;;;;;;;;;4997433;28;20085;-23
2022/12/25 12:10:46;;;;;;;1.35;1.10;;;;;;;;;;4997018;28;20089;-21
2022/12/25 12:13:17;;;;;;;1.38;1.27;;;;;;;;;;4997024;28;20339;-22
2022/12/25 12:15:45;;;;;;;1.77;1.45;;;;;;;;;;4996739;28;20038;-23
2022/12/25 12:18:26;;;;;;;1.40;1.40;;;;;;;;;;4996954;28;20026;-25
2022/12/25 12:21:04;;;;;;;1.60;1.50;;;;;;;;;;4997433;28;20400;-22
2022/12/25 12:23:31;;;;;;;1.60;1.50;;;;;;;;;;4996484;28;20058;-23
2022/12/25 12:25:57;;;;;;;2.10;1.88;;;;;;;;;;4996830;28;20462;-23
2022/12/25 12:28:25;;;;;;;1.45;1.35;;;;;;;;;;4996441;28;20060;-22
2022/12/25 12:31:03;;;;;;;1.90;1.75;;;;;;;;;;4996365;28;20038;-21
2022/12/25 12:33:33;;;;;;;1.27;1.20;;;;;;;;;;4996287;28;20088;-25
2022/12/25 12:36:00;;;;;;;1.63;1.38;;;;;;;;;;4996659;28;20370;-22
2022/12/25 12:38:26;;;;;;;1.70;1.30;;;;;;;;;;4996560;28;20037;-30
2022/12/25 12:40:57;;;;;;;1.13;1.13;;;;;;;;;;4996298;28;20465;-27
2022/12/25 12:43:26;;;;;;;1.80;1.40;;;;;;;;;;4996474;28;20030;-23
2022/12/25 12:45:56;;;;;;;1.55;1.45;;;;;;;;;;4996172;28;20454;-22
2022/12/25 12:48:26;;;;;;;1.60;1.50;;;;;;;;;;4996957;28;20030;-22
2022/12/25 12:51:02;;;;;;;1.02;1.02;;;;;;;;;;4996560;28;20053;-22
2022/12/25 12:53:32;;;;;;;1.27;1.17;;;;;;;;;;4996117;28;20129;-22
2022/12/25 12:56:08;;;;;;;1.45;1.33;;;;;;;;;;4996211;28;20018;-23
2022/12/25 12:58:36;;;;;;;2.38;1.55;;;;;;;;;;4996795;28;20038;-21
2022/12/25 13:01:17;;;;;;;1.50;1.40;;;;;;;;;;4996148;28;20037;-22
2022/12/25 13:03:52;;;;;;;1.85;1.70;;;;;;;;;;5013427;28;20053;-23
2022/12/25 13:06:33;;;;;;;1.75;1.65;;;;;;;;;;5035237;28;20341;-23
2022/12/25 13:09:18;;;;;;;2.22;1.88;;;;;;;;;;5035485;28;20099;-24
2022/12/25 13:11:44;;;;;;;1.50;1.40;;;;;;;;;;5035327;28;20397;-27
2022/12/25 13:14:15;;;;;;;2.00;1.90;;;;;;;;;;5034977;28;20033;-25
2022/12/25 13:16:43;;;;;;;1.95;1.60;;;;;;;;;;5035025;28;20090;-26
2022/12/25 13:19:28;;;;;;;1.70;1.25;;;;;;;;;;5034929;28;20033;-22
2022/12/25 13:21:57;;;;;;;1.48;1.38;;;;;;;;;;5034852;28;20025;-22
2022/12/25 13:24:30;;;;;;;1.88;1.50;;;;;;;;;;5035180;28;20022;-25
2022/12/25 13:26:56;;;;;;;1.75;1.65;;;;;;;;;;5035165;28;20029;-21
2022/12/25 13:29:26;;;;;;;1.75;1.65;;;;;;;;;;5034846;28;20501;-22
2022/12/25 13:31:52;;;;;;;1.30;1.20;;;;;;;;;;5034646;28;20029;-21
2022/12/25 13:34:26;;;;;;;1.48;1.38;;;;;;;;;;5034795;28;20021;-22
2022/12/25 13:36:52;;;;;;;1.38;1.27;;;;;;;;;;5035033;28;20104;-22
2022/12/25 13:39:18;;;;;;;1.50;1.40;;;;;;;;;;5035000;28;20531;-22
2022/12/25 13:42:05;;;;;;;1.40;1.30;;;;;;;;;;5034661;28;20107;-22
2022/12/25 13:44:40;;;;;;;1.85;1.75;;;;;;;;;;5034629;28;20104;-25
2022/12/25 13:47:25;;;;;;;1.55;1.45;;;;;;;;;;5034655;28;20029;-24
2022/12/25 13:49:53;;;;;;;1.45;1.35;;;;;;;;;;5034622;28;20026;-23
2022/12/25 13:52:37;;;;;;;1.83;1.50;;;;;;;;;;5034735;28;20037;-22
2022/12/25 13:55:11;;;;;;;1.38;1.27;;;;;;;;;;5034880;28;20368;-21
2022/12/25 13:57:43;;;;;;;1.48;1.38;;;;;;;;;;5034774;28;20034;-22
2022/12/25 14:00:17;;;;;;;1.77;1.15;;;;;;;;;;5035078;28;20044;-22
2022/12/25 14:02:45;;;;;;;1.80;1.70;;;;;;;;;;5034511;28;20529;-22
2022/12/25 14:05:23;;;;;;;1.35;1.25;;;;;;;;;;5034775;28;20036;-22
2022/12/25 14:07:53;;;;;;;1.15;1.00;;;;;;;;;;5036534;28;20187;-21
2022/12/25 14:10:21;;;;;;;1.50;1.40;;;;;;;;;;5038650;28;20531;-22
2022/12/25 14:12:49;;;;;;;1.98;1.73;;;;;;;;;;5038652;28;20035;-25
2022/12/25 14:15:17;;;;;;;2.22;2.13;;;;;;;;;;5038709;28;20057;-22
2022/12/25 14:17:44;;;;;;;1.33;1.23;;;;;;;;;;5038326;28;20079;-21
2022/12/25 14:20:21;;;;;;;1.42;1.33;;;;;;;;;;5038586;28;20403;-22
2022/12/25 14:22:51;;;;;;;1.70;1.60;;;;;;;;;;5038254;28;20356;-22
2022/12/25 14:25:17;;;;;;;1.23;1.20;;;;;;;;;;5038179;28;20018;-24
2022/12/25 14:27:47;;;;;;;1.65;1.50;;;;;;;;;;5038456;28;20049;-25
2022/12/25 14:30:14;;;;;;;1.42;1.30;;;;;;;;;;5037195;28;20021;-22
2022/12/25 14:32:42;;;;;;;1.13;1.08;;;;;;;;;;5038510;28;20032;-25
2022/12/25 14:35:10;;;;;;;1.30;1.20;;;;;;;;;;5038004;28;20022;-22
2022/12/25 14:37:37;;;;;;;1.20;1.10;;;;;;;;;;5038218;28;20155;-21
2022/12/25 14:40:26;;;;;;;2.00;1.90;;;;;;;;;;5038174;28;20041;-22
2022/12/25 14:43:02;;;;;;;1.40;1.27;;;;;;;;;;5032585;28;20041;-22
2022/12/25 14:45:33;;;;;;;1.42;1.33;;;;;;;;;;5037879;28;20164;-23
2022/12/25 14:48:02;;;;;;;1.23;1.20;;;;;;;;;;5038058;28;20049;-25
2022/12/25 14:50:29;;;;;;;1.20;1.10;;;;;;;;;;5037692;28;20237;-22
2022/12/25 14:52:56;;;;;;;1.23;1.13;;;;;;;;;;5037776;28;20028;-22
2022/12/25 14:55:23;;;;;;;1.30;1.20;;;;;;;;;;5038442;28;20044;-23
2022/12/25 14:57:54;;;;;;;1.40;1.10;;;;;;;;;;5037565;28;20104;-21
2022/12/25 15:00:25;;;;;;;1.30;1.13;;;;;;;;;;5038113;28;20361;-22
2022/12/25 15:02:53;;;;;;;1.10;1.00;;;;;;;;;;5037236;28;20384;-22
2022/12/25 15:05:27;;;;;;;1.33;1.23;;;;;;;;;;5037787;28;20040;-21
2022/12/25 15:08:00;;;;;;;1.48;1.38;;;;;;;;;;5037394;28;20081;-22
2022/12/25 15:10:26;;;;;;;1.08;1.08;;;;;;;;;;5037544;28;20061;-25
2022/12/25 15:12:52;;;;;;;1.20;1.10;;;;;;;;;;5037544;28;20333;-22
2022/12/25 15:15:19;;;;;;;1.10;1.05;;;;;;;;;;5037247;28;20029;-21
2022/12/25 15:17:45;;;;;;;1.50;1.40;;;;;;;;;;5037243;28;20040;-22
2022/12/25 15:20:14;;;;;;;1.20;1.10;;;;;;;;;;5036160;28;20468;-22
2022/12/25 15:22:42;;;;;;;1.10;1.10;;;;;;;;;;5037067;28;20444;-23
2022/12/25 15:25:10;;;;;;;1.30;1.13;;;;;;;;;;5037908;28;20049;-22
2022/12/25 15:27:36;;;;;;;1.42;1.33;;;;;;;;;;5037313;28;20021;-21
2022/12/25 15:30:02;;;;;;;1.33;1.23;;;;;;;;;;5037799;28;20052;-25
2022/12/25 15:32:28;;;;;;;1.50;1.40;;;;;;;;;;5052498;28;20475;-21
2022/12/25 15:34:54;;;;;;;1.50;1.40;;;;;;;;;;5036936;28;20029;-23
2022/12/25 15:37:20;;;;;;;1.63;1.25;;;;;;;;;;5036857;28;20017;-24
2022/12/25 15:39:47;;;;;;;1.10;1.10;;;;;;;;;;5036830;28;20516;-22
2022/12/25 15:42:14;;;;;;;1.45;1.35;;;;;;;;;;5036930;28;20057;-24
2022/12/25 15:44:41;;;;;;;1.48;1.38;;;;;;;;;;5036683;28;20045;-22
2022/12/25 15:47:11;;;;;;;1.33;1.30;;;;;;;;;;5036923;28;20087;-22
2022/12/25 15:49:37;;;;;;;1.30;1.20;;;;;;;;;;5036898;28;20022;-22
2022/12/25 15:52:04;;;;;;;1.42;1.33;;;;;;;;;;5036448;28;20025;-22
2022/12/25 15:54:31;;;;;;;1.33;1.23;;;;;;;;;;5035593;28;20049;-22
2022/12/25 15:57:00;;;;;;;1.30;1.30;;;;;;;;;;5036793;28;20032;-23
2022/12/25 15:59:26;;;;;;;1.40;1.30;;;;;;;;;;5036709;28;20037;-25
2022/12/25 16:01:54;;;;;;;1.48;1.38;;;;;;;;;;5036341;28;20178;-23
2022/12/25 16:04:21;;;;;;;1.35;1.25;;;;;;;;;;5036208;28;20056;-22
2022/12/25 16:06:47;;;;;;;1.67;1.48;;;;;;;;;;5036612;28;20395;-21
2022/12/25 16:09:14;;;;;;;1.33;1.23;;;;;;;;;;5036557;28;20118;-24
2022/12/25 16:11:40;;;;;;;1.02;1.00;;;;;;;;;;5036409;28;20087;-26
2022/12/25 16:14:06;;;;;;;1.58;1.48;;;;;;;;;;5036141;28;20448;-24
2022/12/25 16:16:32;;;;;;;1.20;1.10;;;;;;;;;;5036390;28;20363;-22
2022/12/25 16:18:59;;;;;;;1.55;1.40;;;;;;;;;;5036368;28;20029;-22
2022/12/25 16:21:25;;;;;;;1.30;1.10;;;;;;;;;;5036069;28;20104;-25
2022/12/25 16:23:52;;;;;;;1.50;1.40;;;;;;;;;;5035849;28;20091;-21
2022/12/25 16:26:18;;;;;;;1.20;1.10;;;;;;;;;;5036266;28;20033;-22
2022/12/25 16:28:44;;;;;;;1.45;1.35;;;;;;;;;;5036197;28;20361;-22
2022/12/25 16:31:11;;;;;;;1.27;1.17;;;;;;;;;;5035410;28;20143;-21
2022/12/25 16:33:37;;;;;;;1.25;1.17;;;;;;;;;;5035694;28;20448;-23
2022/12/25 16:36:03;;;;;;;1.33;1.23;;;;;;;;;;5035806;28;20048;-22